Pagina principale
METAR-TAF:

METAR-TAF

Aeroporti :

Aeroporto di Treviso-Sant'Angelo

Treviso, Italia

latitudine: 45-39N, longitudine: 012-11E, altezza: 18 m

Osservazione

Il bollettino è stato emesso 20 minuti fa, alle 21:50 UTC
Vento 1 kt da direzioni variabili
Temperature 0°C
Umidità 69%
Pressione 1019 hPa
Visibilità 10 km o più
nessuna nube inferiore a 1500 m e nessun cumulonembo

METAR: LIPH 122150Z VRB01KT CAVOK M00/M05 Q1019

Ora: 23:10 (22:10 UTC)

Previsione

Il bollettino è stato emesso 5 ore e 10 minuti fa, alle 17:00 UTC
Previsione valida dal 12 alle 18 UTC al 13 alle 18 UTC
Vento 10 kt da nord-est
Visibilità 10 km o più
Poco nuvoloso ad un'altezza di 3000 ft
Temporaneamente
dal 13 alle 06 UTC al 13 alle 12 UTC
pioggia

TAF: LIPH 121700Z 1218/1318 04010KT 9999 FEW030 TEMPO 1306/1312 RA

Osservazioni e previsioni meteorologiche di più di 4000 aeroporti (messaggi METAR e TAF).

Le stazioni disponibili sono rappresentate dai dischi gialli e rossi sulla carta.

Puntare il mouse per vedere il nome della stazione.

Clicca sopra per visualizzare le osservazioni e previsioni meteorologiche.

Per cambiare la mappa : fare clic sui pulsanti verdi con una croce nera per ingrandire, il pulsante verde con un trattino per diminuire, o sulla freccia verde per le mappe adiacenti.


METAR-TAF: